Terminal Aerodrome Forecast
Issued by NWS

Home | Current Version | Previous Version | Text Only | Print | Product List | Glossary On
Versions: 1 2 3 4 5 6 7 8 9 10 11 12 13 14 15 16 17 18 19 20 21 22 23 24 25 26
000
FTUS41 KCTP 220935 AAA
TAFLNS
TAF AMD
KLNS 220935Z 2210/2306 VRB03KT 1/4SM FG OVC002
     FM221600 04003KT 2SM BR OVC012
     FM221900 06008KT P6SM SCT030 BKN080
     FM230100 06008KT 5SM -RA BR OVC030
     FM230500 08010KT 1SM -RA BR BKN009 OVC015=

USA.gov is the U.S. government's official web portal to all federal, state and local government web resources and services.